sensor_id;sensor_type;location;lat;lon;timestamp;temperature;humidity
35491;DHT22;21605;52.068;20.806;2023-04-01T00:02:22;10.70;99.90
35491;DHT22;21605;52.068;20.806;2023-04-01T00:04:48;10.70;99.90
35491;DHT22;21605;52.068;20.806;2023-04-01T00:07:23;10.70;99.90
35491;DHT22;21605;52.068;20.806;2023-04-01T00:09:49;10.70;99.90
35491;DHT22;21605;52.068;20.806;2023-04-01T00:12:20;10.70;99.90
35491;DHT22;21605;52.068;20.806;2023-04-01T00:14:45;10.70;99.90
35491;DHT22;21605;52.068;20.806;2023-04-01T00:17:17;10.70;99.90
35491;DHT22;21605;52.068;20.806;2023-04-01T00:19:42;10.60;99.90
35491;DHT22;21605;52.068;20.806;2023-04-01T00:22:18;10.60;99.90
35491;DHT22;21605;52.068;20.806;2023-04-01T00:24:43;10.60;99.90
35491;DHT22;21605;52.068;20.806;2023-04-01T00:27:17;10.60;99.90
35491;DHT22;21605;52.068;20.806;2023-04-01T00:29:44;10.60;99.90
35491;DHT22;21605;52.068;20.806;2023-04-01T00:32:15;10.60;99.90
35491;DHT22;21605;52.068;20.806;2023-04-01T00:34:41;10.60;99.90
35491;DHT22;21605;52.068;20.806;2023-04-01T00:37:07;10.60;99.90
35491;DHT22;21605;52.068;20.806;2023-04-01T00:39:34;10.50;99.90
35491;DHT22;21605;52.068;20.806;2023-04-01T00:42:00;10.50;99.90
35491;DHT22;21605;52.068;20.806;2023-04-01T00:44:29;10.50;99.90
35491;DHT22;21605;52.068;20.806;2023-04-01T00:46:55;10.50;99.90
35491;DHT22;21605;52.068;20.806;2023-04-01T00:49:28;10.40;99.90
35491;DHT22;21605;52.068;20.806;2023-04-01T00:51:57;10.30;99.90
35491;DHT22;21605;52.068;20.806;2023-04-01T00:54:24;10.30;99.90
35491;DHT22;21605;52.068;20.806;2023-04-01T00:56:54;10.40;99.90
35491;DHT22;21605;52.068;20.806;2023-04-01T00:59:34;10.40;99.90
35491;DHT22;21605;52.068;20.806;2023-04-01T01:02:03;10.40;99.90
35491;DHT22;21605;52.068;20.806;2023-04-01T01:04:33;10.40;99.90
35491;DHT22;21605;52.068;20.806;2023-04-01T01:07:31;10.30;99.90
35491;DHT22;21605;52.068;20.806;2023-04-01T01:15:46;10.30;99.90
35491;DHT22;21605;52.068;20.806;2023-04-01T01:21:25;10.20;99.90
35491;DHT22;21605;52.068;20.806;2023-04-01T01:27:11;10.20;99.90
35491;DHT22;21605;52.068;20.806;2023-04-01T01:38:26;10.30;99.90
35491;DHT22;21605;52.068;20.806;2023-04-01T01:40:53;10.30;99.90
35491;DHT22;21605;52.068;20.806;2023-04-01T01:43:29;10.20;99.90
35491;DHT22;21605;52.068;20.806;2023-04-01T01:45:58;10.20;99.90
35491;DHT22;21605;52.068;20.806;2023-04-01T01:48:27;10.20;99.90
35491;DHT22;21605;52.068;20.806;2023-04-01T01:50:53;10.20;99.90
35491;DHT22;21605;52.068;20.806;2023-04-01T01:53:24;10.20;99.90
35491;DHT22;21605;52.068;20.806;2023-04-01T01:55:50;10.20;99.90
35491;DHT22;21605;52.068;20.806;2023-04-01T02:00:59;10.10;99.90
35491;DHT22;21605;52.068;20.806;2023-04-01T02:03:29;10.20;99.90
35491;DHT22;21605;52.068;20.806;2023-04-01T02:05:59;10.10;99.90
35491;DHT22;21605;52.068;20.806;2023-04-01T02:08:59;10.10;99.90
35491;DHT22;21605;52.068;20.806;2023-04-01T02:11:34;10.10;99.90
35491;DHT22;21605;52.068;20.806;2023-04-01T02:14:08;10.10;99.90
35491;DHT22;21605;52.068;20.806;2023-04-01T02:16:58;10.10;99.90
35491;DHT22;21605;52.068;20.806;2023-04-01T02:19:51;10.00;99.90
35491;DHT22;21605;52.068;20.806;2023-04-01T02:22:26;10.00;99.90
35491;DHT22;21605;52.068;20.806;2023-04-01T02:24:58;10.00;99.90
35491;DHT22;21605;52.068;20.806;2023-04-01T02:27:28;10.00;99.90
35491;DHT22;21605;52.068;20.806;2023-04-01T02:29:53;10.00;99.90
35491;DHT22;21605;52.068;20.806;2023-04-01T02:32:25;10.00;99.90
35491;DHT22;21605;52.068;20.806;2023-04-01T02:34:52;9.90;99.90
35491;DHT22;21605;52.068;20.806;2023-04-01T02:37:23;9.90;99.90
35491;DHT22;21605;52.068;20.806;2023-04-01T02:39:49;9.90;99.90
35491;DHT22;21605;52.068;20.806;2023-04-01T02:42:31;9.90;99.90
35491;DHT22;21605;52.068;20.806;2023-04-01T02:44:57;9.90;99.90
35491;DHT22;21605;52.068;20.806;2023-04-01T02:47:31;9.90;99.90
35491;DHT22;21605;52.068;20.806;2023-04-01T02:49:57;9.90;99.90
35491;DHT22;21605;52.068;20.806;2023-04-01T02:52:28;9.90;99.90
35491;DHT22;21605;52.068;20.806;2023-04-01T02:54:55;9.90;99.90
35491;DHT22;21605;52.068;20.806;2023-04-01T02:57:25;9.90;99.90
35491;DHT22;21605;52.068;20.806;2023-04-01T02:59:51;9.90;99.90
35491;DHT22;21605;52.068;20.806;2023-04-01T03:02:26;9.90;99.90
35491;DHT22;21605;52.068;20.806;2023-04-01T03:04:52;9.80;99.90
35491;DHT22;21605;52.068;20.806;2023-04-01T03:07:26;9.80;99.90
35491;DHT22;21605;52.068;20.806;2023-04-01T03:09:52;9.80;99.90
35491;DHT22;21605;52.068;20.806;2023-04-01T03:12:27;9.80;99.90
35491;DHT22;21605;52.068;20.806;2023-04-01T03:14:52;9.80;99.90
35491;DHT22;21605;52.068;20.806;2023-04-01T03:17:27;9.80;99.90
35491;DHT22;21605;52.068;20.806;2023-04-01T03:19:53;9.80;99.90
35491;DHT22;21605;52.068;20.806;2023-04-01T03:22:27;9.80;99.90
35491;DHT22;21605;52.068;20.806;2023-04-01T03:24:53;9.90;99.90
35491;DHT22;21605;52.068;20.806;2023-04-01T03:27:28;9.90;99.90
35491;DHT22;21605;52.068;20.806;2023-04-01T03:29:53;9.80;99.90
35491;DHT22;21605;52.068;20.806;2023-04-01T03:32:24;9.90;99.90
35491;DHT22;21605;52.068;20.806;2023-04-01T03:34:50;9.90;99.90
35491;DHT22;21605;52.068;20.806;2023-04-01T03:37:15;9.90;99.90
35491;DHT22;21605;52.068;20.806;2023-04-01T03:39:41;9.90;99.90
35491;DHT22;21605;52.068;20.806;2023-04-01T03:42:06;9.90;99.90
35491;DHT22;21605;52.068;20.806;2023-04-01T03:44:35;9.90;99.90
35491;DHT22;21605;52.068;20.806;2023-04-01T03:47:01;9.90;99.90
35491;DHT22;21605;52.068;20.806;2023-04-01T03:49:27;9.90;99.90
35491;DHT22;21605;52.068;20.806;2023-04-01T03:51:52;9.90;99.90
35491;DHT22;21605;52.068;20.806;2023-04-01T03:54:24;9.90;99.90
35491;DHT22;21605;52.068;20.806;2023-04-01T03:56:50;9.90;99.90
35491;DHT22;21605;52.068;20.806;2023-04-01T03:59:16;9.90;99.90
35491;DHT22;21605;52.068;20.806;2023-04-01T04:01:41;9.90;99.90
35491;DHT22;21605;52.068;20.806;2023-04-01T04:04:07;10.00;99.90
35491;DHT22;21605;52.068;20.806;2023-04-01T04:06:35;10.00;99.90
35491;DHT22;21605;52.068;20.806;2023-04-01T04:09:01;10.00;99.90
35491;DHT22;21605;52.068;20.806;2023-04-01T04:11:39;10.00;99.90
35491;DHT22;21605;52.068;20.806;2023-04-01T04:14:04;10.00;99.90
35491;DHT22;21605;52.068;20.806;2023-04-01T04:16:35;10.00;99.90
35491;DHT22;21605;52.068;20.806;2023-04-01T04:19:04;10.00;99.90
35491;DHT22;21605;52.068;20.806;2023-04-01T04:21:35;10.10;99.90
35491;DHT22;21605;52.068;20.806;2023-04-01T04:24:02;10.00;99.90
35491;DHT22;21605;52.068;20.806;2023-04-01T04:26:37;10.00;99.90
35491;DHT22;21605;52.068;20.806;2023-04-01T04:29:03;10.00;99.90
35491;DHT22;21605;52.068;20.806;2023-04-01T04:31:30;10.00;99.90
35491;DHT22;21605;52.068;20.806;2023-04-01T04:33:55;9.90;99.90
35491;DHT22;21605;52.068;20.806;2023-04-01T04:36:30;9.90;99.90
35491;DHT22;21605;52.068;20.806;2023-04-01T04:38:55;9.90;99.90
35491;DHT22;21605;52.068;20.806;2023-04-01T04:41:23;9.90;99.90
35491;DHT22;21605;52.068;20.806;2023-04-01T04:43:54;9.90;99.90
35491;DHT22;21605;52.068;20.806;2023-04-01T04:46:20;9.90;99.90
35491;DHT22;21605;52.068;20.806;2023-04-01T04:48:46;9.90;99.90
35491;DHT22;21605;52.068;20.806;2023-04-01T04:51:17;9.90;99.90
35491;DHT22;21605;52.068;20.806;2023-04-01T04:53:43;9.90;99.90
35491;DHT22;21605;52.068;20.806;2023-04-01T04:56:09;9.90;99.90
35491;DHT22;21605;52.068;20.806;2023-04-01T04:58:35;10.00;99.90
35491;DHT22;21605;52.068;20.806;2023-04-01T05:01:12;10.00;99.90
35491;DHT22;21605;52.068;20.806;2023-04-01T05:03:38;10.00;99.90
35491;DHT22;21605;52.068;20.806;2023-04-01T05:06:05;10.00;99.90
35491;DHT22;21605;52.068;20.806;2023-04-01T05:08:40;10.00;99.90
35491;DHT22;21605;52.068;20.806;2023-04-01T05:11:09;10.00;99.90
35491;DHT22;21605;52.068;20.806;2023-04-01T05:13:36;10.10;99.90
35491;DHT22;21605;52.068;20.806;2023-04-01T05:16:02;10.00;99.90
35491;DHT22;21605;52.068;20.806;2023-04-01T05:18:36;10.10;99.90
35491;DHT22;21605;52.068;20.806;2023-04-01T05:21:02;10.20;99.90
35491;DHT22;21605;52.068;20.806;2023-04-01T05:23:37;10.10;99.90
35491;DHT22;21605;52.068;20.806;2023-04-01T05:26:04;10.20;99.90
35491;DHT22;21605;52.068;20.806;2023-04-01T05:28:40;10.20;99.90
35491;DHT22;21605;52.068;20.806;2023-04-01T05:31:06;10.30;99.90
35491;DHT22;21605;52.068;20.806;2023-04-01T05:33:32;10.30;99.90
35491;DHT22;21605;52.068;20.806;2023-04-01T05:36:07;10.30;99.90
35491;DHT22;21605;52.068;20.806;2023-04-01T05:38:33;10.40;99.90
35491;DHT22;21605;52.068;20.806;2023-04-01T05:41:00;10.40;99.90
35491;DHT22;21605;52.068;20.806;2023-04-01T05:43:38;10.50;99.90
35491;DHT22;21605;52.068;20.806;2023-04-01T05:46:04;10.50;99.90
35491;DHT22;21605;52.068;20.806;2023-04-01T05:48:36;10.50;99.90
35491;DHT22;21605;52.068;20.806;2023-04-01T05:51:02;10.60;99.90
35491;DHT22;21605;52.068;20.806;2023-04-01T05:53:28;10.70;99.90
35491;DHT22;21605;52.068;20.806;2023-04-01T05:55:53;10.70;99.90
35491;DHT22;21605;52.068;20.806;2023-04-01T05:58:19;10.60;99.90
35491;DHT22;21605;52.068;20.806;2023-04-01T06:00:44;10.70;99.90
35491;DHT22;21605;52.068;20.806;2023-04-01T06:03:10;10.70;99.90
35491;DHT22;21605;52.068;20.806;2023-04-01T06:05:41;10.70;99.90
35491;DHT22;21605;52.068;20.806;2023-04-01T06:08:13;10.80;99.90
35491;DHT22;21605;52.068;20.806;2023-04-01T06:16:43;10.90;99.90
35491;DHT22;21605;52.068;20.806;2023-04-01T06:19:32;10.90;99.90
35491;DHT22;21605;52.068;20.806;2023-04-01T06:22:08;11.00;99.90
35491;DHT22;21605;52.068;20.806;2023-04-01T06:30:23;11.00;99.90
35491;DHT22;21605;52.068;20.806;2023-04-01T06:46:48;11.20;99.90
35491;DHT22;21605;52.068;20.806;2023-04-01T06:54:48;11.20;99.90
35491;DHT22;21605;52.068;20.806;2023-04-01T06:59:43;11.20;99.90
35491;DHT22;21605;52.068;20.806;2023-04-01T07:04:42;11.20;99.90
35491;DHT22;21605;52.068;20.806;2023-04-01T07:09:53;11.30;99.90
35491;DHT22;21605;52.068;20.806;2023-04-01T07:15:09;11.30;99.90
35491;DHT22;21605;52.068;20.806;2023-04-01T07:17:38;11.40;99.90
35491;DHT22;21605;52.068;20.806;2023-04-01T07:22:44;11.40;99.90
35491;DHT22;21605;52.068;20.806;2023-04-01T07:25:20;11.50;99.90
35491;DHT22;21605;52.068;20.806;2023-04-01T07:27:46;11.50;99.90
35491;DHT22;21605;52.068;20.806;2023-04-01T07:30:18;11.60;99.90
